createdAt,value
2022-08-25T00:02:02.043Z,99862.56
2022-08-25T00:04:29.762Z,99866.16
2022-08-25T00:07:02.230Z,99868.84
2022-08-25T00:09:31.478Z,99861.19
2022-08-25T00:11:58.585Z,99869.88
2022-08-25T00:14:29.261Z,99869.88
2022-08-25T00:16:56.226Z,99870.78
2022-08-25T00:19:26.944Z,99870.84
2022-08-25T00:21:56.088Z,99868.25
2022-08-25T00:24:24.439Z,99866.53
2022-08-25T00:26:55.014Z,99865.75
2022-08-25T00:29:23.014Z,99871.06
2022-08-25T00:31:49.608Z,99866.78
2022-08-25T00:34:20.415Z,99875.50
2022-08-25T00:36:47.314Z,99866.06
2022-08-25T00:39:14.487Z,99870.44
2022-08-25T00:41:43.178Z,99864.38
2022-08-25T00:44:12.686Z,99864.47
2022-08-25T00:46:45.913Z,99865.34
2022-08-25T00:49:31.990Z,99865.34
2022-08-25T00:51:58.369Z,99872.38
2022-08-25T00:54:47.817Z,99867.28
2022-08-25T00:57:16.558Z,99870.84
2022-08-25T00:59:44.443Z,99863.94
2022-08-25T01:02:14.006Z,99861.38
2022-08-25T01:04:48.906Z,99859.69
2022-08-25T01:07:19.491Z,99857.06
2022-08-25T01:09:49.841Z,99857.94
2022-08-25T01:12:16.642Z,99858.88
2022-08-25T01:14:46.018Z,99861.50
2022-08-25T01:17:14.234Z,99859.81
2022-08-25T01:19:41.074Z,99859.00
2022-08-25T01:22:07.784Z,99853.84
2022-08-25T01:24:34.303Z,99863.50
2022-08-25T01:27:01.369Z,99850.56
2022-08-25T01:29:28.415Z,99849.66
2022-08-25T01:31:59.050Z,99842.75
2022-08-25T01:34:31.751Z,99843.63
2022-08-25T01:37:00.214Z,99844.56
2022-08-25T01:39:28.883Z,99845.50
2022-08-25T01:42:08.989Z,99852.50
2022-08-25T01:44:46.297Z,99846.47
2022-08-25T01:47:14.261Z,99840.41
2022-08-25T01:49:40.896Z,99844.81
2022-08-25T01:52:10.494Z,99855.38
2022-08-25T01:54:37.117Z,99865.00
2022-08-25T01:57:04.291Z,99855.56
2022-08-25T01:59:30.898Z,99859.09
2022-08-25T02:02:00.043Z,99858.28
2022-08-25T02:04:32.062Z,99857.53
2022-08-25T02:07:05.437Z,99850.66
2022-08-25T02:09:32.528Z,99855.03
2022-08-25T02:11:59.340Z,99854.22
2022-08-25T02:14:26.016Z,99858.66
2022-08-25T02:16:54.972Z,99853.44
2022-08-25T02:19:24.413Z,99847.41
2022-08-25T02:21:51.285Z,99844.84
2022-08-25T02:24:18.780Z,99844.00
2022-08-25T02:26:45.518Z,99846.69
2022-08-25T02:29:12.427Z,99843.22
2022-08-25T02:31:39.831Z,99845.88
2022-08-25T02:34:07.921Z,99845.88
2022-08-25T02:36:35.087Z,99848.56
2022-08-25T02:39:02.283Z,99851.25
2022-08-25T02:41:31.841Z,99848.69
2022-08-25T02:44:02.772Z,99847.84
2022-08-25T02:46:29.623Z,99849.66
2022-08-25T02:48:56.574Z,99845.38
2022-08-25T02:51:25.547Z,99848.03
2022-08-25T02:53:52.497Z,99853.28
2022-08-25T02:56:19.855Z,99851.63
2022-08-25T02:58:48.028Z,99855.97
2022-08-25T03:01:15.787Z,99859.53
2022-08-25T03:03:45.912Z,99845.75
2022-08-25T03:06:15.497Z,99856.16
2022-08-25T03:08:43.055Z,99851.03
2022-08-25T03:11:10.841Z,99855.44
2022-08-25T03:13:37.907Z,99862.44
2022-08-25T03:16:10.977Z,99852.97
2022-08-25T03:18:39.525Z,99859.91
2022-08-25T03:21:07.575Z,99851.28
2022-08-25T03:23:34.148Z,99857.41
2022-08-25T03:26:20.491Z,99851.38
2022-08-25T03:28:47.181Z,99854.88
2022-08-25T03:31:13.890Z,99847.06
2022-08-25T03:33:40.593Z,99839.34
2022-08-25T03:36:08.596Z,99848.91
2022-08-25T03:38:38.259Z,99850.66
2022-08-25T03:41:23.656Z,99847.22
2022-08-25T03:43:53.860Z,99845.59
2022-08-25T03:46:24.800Z,99851.63
2022-08-25T03:48:52.324Z,99849.13
2022-08-25T03:51:24.264Z,99843.94
2022-08-25T03:53:51.482Z,99846.63
2022-08-25T03:56:18.665Z,99845.75
2022-08-25T03:58:45.813Z,99845.69
2022-08-25T04:01:12.557Z,99839.69
2022-08-25T04:03:39.261Z,99837.97
2022-08-25T04:06:07.760Z,99842.19
2022-08-25T04:08:34.829Z,99856.06
2022-08-25T04:11:13.948Z,99850.78
2022-08-25T04:13:45.740Z,99844.69
2022-08-25T04:16:15.014Z,99841.19
2022-08-25T04:18:42.832Z,99836.81
2022-08-25T04:21:11.205Z,99831.63
2022-08-25T04:23:42.724Z,99826.41
2022-08-25T04:26:32.601Z,99833.25
2022-08-25T04:29:00.866Z,99831.44
2022-08-25T04:31:28.815Z,99828.81
2022-08-25T04:33:55.523Z,99828.75
2022-08-25T04:36:22.632Z,99832.19
2022-08-25T04:38:50.058Z,99826.97
2022-08-25T04:41:21.186Z,99825.09
2022-08-25T04:43:48.515Z,99816.38
2022-08-25T04:46:23.444Z,99824.09
2022-08-25T04:48:53.485Z,99826.66
2022-08-25T04:51:26.361Z,99821.34
2022-08-25T04:53:54.316Z,99819.56
2022-08-25T04:56:25.063Z,99816.91
2022-08-25T04:58:53.550Z,99817.66
2022-08-25T05:01:24.212Z,99817.56
2022-08-25T05:03:59.650Z,99817.41
2022-08-25T05:06:27.501Z,99806.94
2022-08-25T05:08:54.263Z,99812.91
2022-08-25T05:11:21.900Z,99810.25
2022-08-25T05:13:52.714Z,99810.19
2022-08-25T05:16:21.841Z,99811.78
2022-08-25T05:18:50.507Z,99802.19
2022-08-25T05:21:20.216Z,99804.75
2022-08-25T05:23:47.675Z,99799.41
2022-08-25T05:26:20.652Z,99803.63
2022-08-25T05:28:50.404Z,99797.41
2022-08-25T05:31:17.978Z,99794.66
2022-08-25T05:33:44.669Z,99803.13
2022-08-25T05:36:13.739Z,99802.13
2022-08-25T05:38:41.840Z,99801.06
2022-08-25T05:41:12.096Z,99794.81
2022-08-25T05:43:41.008Z,99804.16
2022-08-25T05:46:09.265Z,99805.78
2022-08-25T05:48:36.633Z,99796.94
2022-08-25T05:51:06.933Z,99800.25
2022-08-25T05:53:34.251Z,99800.78
2022-08-25T05:56:01.923Z,99803.97
2022-08-25T05:58:29.657Z,99803.75
2022-08-25T06:00:58.387Z,99808.69
2022-08-25T06:03:25.107Z,99800.66
2022-08-25T06:05:51.749Z,99797.78
2022-08-25T06:08:19.482Z,99802.00
2022-08-25T06:10:51.696Z,99800.06
2022-08-25T06:13:26.953Z,99803.28
2022-08-25T06:15:59.801Z,99807.41
2022-08-25T06:18:26.914Z,99795.84
2022-08-25T06:20:54.018Z,99806.97
2022-08-25T06:23:20.641Z,99805.00
2022-08-25T06:25:51.810Z,99805.63
2022-08-25T06:28:19.313Z,99812.34
2022-08-25T06:30:46.901Z,99801.56
2022-08-25T06:33:14.728Z,99805.72
2022-08-25T06:35:43.216Z,99812.38
2022-08-25T06:38:11.039Z,99795.50
2022-08-25T06:40:38.484Z,99806.50
2022-08-25T06:43:08.778Z,99795.75
2022-08-25T06:45:35.855Z,99805.00
2022-08-25T06:48:02.527Z,99806.47
2022-08-25T06:50:29.410Z,99802.72
2022-08-25T06:52:56.066Z,99800.72
2022-08-25T06:55:22.693Z,99802.22
2022-08-25T06:57:53.333Z,99808.09
2022-08-25T07:00:22.538Z,99813.88
2022-08-25T07:02:57.624Z,99811.88
2022-08-25T07:05:33.589Z,99814.31
2022-08-25T07:08:07.320Z,99807.88
2022-08-25T07:10:33.922Z,99803.28
2022-08-25T07:13:01.565Z,99802.09
2022-08-25T07:15:28.230Z,99801.88
2022-08-25T07:17:54.937Z,99806.88
2022-08-25T07:22:54.025Z,99807.19
2022-08-25T07:25:20.616Z,99801.72
2022-08-25T07:27:47.195Z,99804.91
2022-08-25T07:30:13.904Z,99803.66
2022-08-25T07:32:42.241Z,99806.03
2022-08-25T07:35:18.920Z,99803.97
2022-08-25T07:37:52.017Z,99796.78
2022-08-25T07:40:24.324Z,99797.22
2022-08-25T07:42:52.841Z,99796.06
2022-08-25T07:45:21.234Z,99784.41
2022-08-25T07:47:48.530Z,99780.69
2022-08-25T07:50:18.656Z,99784.69
2022-08-25T07:52:49.727Z,99779.13
2022-08-25T07:55:20.640Z,99786.69
2022-08-25T07:57:48.972Z,99776.75
2022-08-25T08:00:21.843Z,99779.13
2022-08-25T08:02:48.572Z,99776.31
2022-08-25T08:05:15.530Z,99768.22
2022-08-25T08:07:43.986Z,99770.63
2022-08-25T08:13:01.708Z,99769.16
2022-08-25T08:15:29.704Z,99766.19
2022-08-25T08:17:58.116Z,99771.06
2022-08-25T08:20:26.869Z,99767.25
2022-08-25T08:22:53.631Z,99759.97
2022-08-25T08:25:21.594Z,99753.66
2022-08-25T08:27:55.050Z,99750.91
2022-08-25T08:30:22.267Z,99750.59
2022-08-25T08:33:09.311Z,99756.53
2022-08-25T08:35:36.615Z,99748.34
2022-08-25T08:38:03.421Z,99751.63
2022-08-25T08:40:33.760Z,99752.31
2022-08-25T08:43:18.226Z,99752.13
2022-08-25T08:45:51.944Z,99753.47
2022-08-25T08:48:41.973Z,99744.38
2022-08-25T08:51:42.349Z,99745.75
2022-08-25T08:54:23.121Z,99737.47
2022-08-25T08:56:55.186Z,99738.13
2022-08-25T08:59:30.089Z,99741.16
2022-08-25T09:02:02.733Z,99741.75
2022-08-25T09:04:55.071Z,99738.03
2022-08-25T09:07:32.275Z,99734.03
2022-08-25T09:09:59.471Z,99737.13
2022-08-25T09:12:56.847Z,99732.31
2022-08-25T09:16:20.451Z,99733.47
2022-08-25T09:19:25.987Z,99733.31
2022-08-25T09:22:35.909Z,99722.78
2022-08-25T09:25:29.456Z,99728.72
2022-08-25T09:28:33.280Z,99721.28
2022-08-25T09:31:27.510Z,99715.72
2022-08-25T09:34:00.038Z,99722.38
2022-08-25T09:36:30.140Z,99716.78
2022-08-25T09:38:57.969Z,99715.75
2022-08-25T09:41:52.087Z,99710.31
2022-08-25T09:44:29.363Z,99714.41
2022-08-25T09:47:01.908Z,99711.59
2022-08-25T09:49:43.962Z,99707.97
2022-08-25T09:52:29.070Z,99704.56
2022-08-25T09:54:59.441Z,99709.25
2022-08-25T09:57:35.055Z,99703.72
2022-08-25T10:00:19.628Z,99707.06
2022-08-25T10:03:05.606Z,99694.41
2022-08-25T10:05:37.590Z,99696.19
2022-08-25T10:08:14.678Z,99694.91
2022-08-25T10:10:54.947Z,99696.25
2022-08-25T10:13:25.065Z,99692.31
2022-08-25T10:16:24.506Z,99692.81
2022-08-25T10:19:10.306Z,99692.38
2022-08-25T10:21:39.330Z,99684.16
2022-08-25T10:24:11.308Z,99697.06
2022-08-25T10:26:56.882Z,99689.63
2022-08-25T10:29:32.500Z,99684.84
2022-08-25T10:32:24.555Z,99669.75
2022-08-25T10:34:58.631Z,99670.50
2022-08-25T10:37:28.576Z,99671.94
2022-08-25T10:40:07.994Z,99672.41
2022-08-25T10:43:00.888Z,99675.72
2022-08-25T10:45:43.638Z,99668.38
2022-08-25T10:48:40.754Z,99674.91
2022-08-25T10:51:40.975Z,99669.19
2022-08-25T10:54:30.577Z,99673.03
2022-08-25T10:57:08.184Z,99668.31
2022-08-25T10:59:36.762Z,99676.06
2022-08-25T11:02:21.671Z,99674.94
2022-08-25T11:05:05.359Z,99667.47
2022-08-25T11:07:46.946Z,99663.50
2022-08-25T11:10:26.024Z,99660.56
2022-08-25T11:12:59.815Z,99667.44
2022-08-25T11:15:41.480Z,99654.38
2022-08-25T11:18:16.870Z,99650.72
2022-08-25T11:20:53.762Z,99655.03
2022-08-25T11:30:19.209Z,99626.44
2022-08-25T11:32:52.162Z,99633.16
2022-08-25T11:35:42.651Z,99626.78
2022-08-25T11:38:34.908Z,99612.59
2022-08-25T11:41:27.175Z,99623.66
2022-08-25T11:44:26.934Z,99616.25
2022-08-25T11:47:21.170Z,99613.22
2022-08-25T11:50:29.878Z,99611.72
2022-08-25T11:53:23.607Z,99604.34
2022-08-25T11:55:58.911Z,99603.94
2022-08-25T11:58:28.482Z,99611.56
2022-08-25T12:01:00.447Z,99607.00
2022-08-25T12:03:34.023Z,99607.28
2022-08-25T12:06:15.890Z,99593.53
2022-08-25T12:08:57.513Z,99591.38
2022-08-25T12:11:47.484Z,99580.50
2022-08-25T12:14:36.461Z,99588.16
2022-08-25T12:17:18.282Z,99590.47
2022-08-25T12:19:44.910Z,99585.03
2022-08-25T12:22:11.465Z,99583.38
2022-08-25T12:24:53.844Z,99584.97
2022-08-25T12:27:38.282Z,99587.88
2022-08-25T12:30:21.125Z,99581.69
2022-08-25T12:33:11.971Z,99584.38
2022-08-25T12:35:49.730Z,99584.69
2022-08-25T12:38:50.928Z,99580.97
2022-08-25T12:41:26.535Z,99577.47
2022-08-25T12:44:08.956Z,99581.66
2022-08-25T12:46:39.465Z,99591.56
2022-08-25T12:49:18.287Z,99584.38
2022-08-25T12:51:54.228Z,99574.06
2022-08-25T12:54:36.969Z,99577.25
2022-08-25T12:57:29.389Z,99571.53
2022-08-25T13:00:01.056Z,99569.50
2022-08-25T13:03:09.879Z,99562.72
2022-08-25T13:05:54.916Z,99565.13
2022-08-25T13:08:48.602Z,99571.72
2022-08-25T13:11:40.851Z,99578.28
2022-08-25T13:14:42.123Z,99568.53
2022-08-25T13:17:11.073Z,99574.72
2022-08-25T13:19:38.417Z,99572.09
2022-08-25T13:22:17.722Z,99577.06
2022-08-25T13:24:50.441Z,99564.44
2022-08-25T13:27:28.176Z,99569.06
2022-08-25T13:30:03.703Z,99567.50
2022-08-25T13:32:35.085Z,99564.47
2022-08-25T13:35:20.945Z,99555.03
2022-08-25T13:37:48.273Z,99564.88
2022-08-25T13:40:33.361Z,99571.13
2022-08-25T13:43:05.791Z,99566.50
2022-08-25T13:45:41.477Z,99564.69
2022-08-25T13:48:22.432Z,99561.88
2022-08-25T13:50:52.659Z,99569.50
2022-08-25T13:53:25.882Z,99561.66
2022-08-25T13:55:58.698Z,99559.97
2022-08-25T13:58:38.668Z,99566.06
2022-08-25T14:01:47.201Z,99563.94
2022-08-25T14:04:24.247Z,99566.25
2022-08-25T14:07:08.389Z,99564.81
2022-08-25T14:09:49.335Z,99559.78
2022-08-25T14:15:02.819Z,99556.00
2022-08-25T14:17:39.436Z,99546.78
2022-08-25T14:20:20.439Z,99551.91
2022-08-25T14:22:47.878Z,99552.00
2022-08-25T14:25:15.147Z,99541.81
2022-08-25T14:28:03.665Z,99545.84
2022-08-25T14:30:34.889Z,99549.69
2022-08-25T14:33:04.025Z,99547.88
2022-08-25T14:35:31.753Z,99554.91
2022-08-25T14:37:58.966Z,99543.94
2022-08-25T14:40:25.779Z,99544.56
2022-08-25T14:42:52.437Z,99547.06
2022-08-25T14:45:19.428Z,99536.84
2022-08-25T14:47:49.729Z,99540.81
2022-08-25T14:50:24.735Z,99535.06
2022-08-25T14:52:52.185Z,99539.84
2022-08-25T14:55:32.234Z,99542.63
2022-08-25T14:57:59.937Z,99534.94
2022-08-25T15:00:26.612Z,99533.47
2022-08-25T15:02:54.918Z,99540.63
2022-08-25T15:05:27.058Z,99532.09
2022-08-25T15:08:14.254Z,99534.19
2022-08-25T15:10:42.176Z,99532.28
2022-08-25T15:13:10.738Z,99528.69
2022-08-25T15:15:52.311Z,99535.66
2022-08-25T15:18:21.141Z,99531.69
2022-08-25T15:20:50.073Z,99533.59
2022-08-25T15:23:18.550Z,99543.69
2022-08-25T15:25:48.025Z,99532.09
2022-08-25T15:28:17.089Z,99527.34
2022-08-25T15:30:45.154Z,99528.03
2022-08-25T15:33:13.161Z,99531.56
2022-08-25T15:35:41.003Z,99529.09
2022-08-25T15:38:08.211Z,99524.19
2022-08-25T15:40:37.629Z,99526.00
2022-08-25T15:43:04.982Z,99523.59
2022-08-25T15:45:32.082Z,99524.16
2022-08-25T15:47:59.548Z,99533.19
2022-08-25T15:50:26.902Z,99533.50
2022-08-25T15:52:53.617Z,99534.88
2022-08-25T15:55:20.993Z,99533.75
2022-08-25T15:57:49.719Z,99531.72
2022-08-25T16:00:18.182Z,99528.56
2022-08-25T16:02:45.466Z,99541.34
2022-08-25T16:05:16.283Z,99527.78
2022-08-25T16:07:45.918Z,99529.16
2022-08-25T16:10:13.607Z,99532.31
2022-08-25T16:12:40.320Z,99533.88
2022-08-25T16:15:09.983Z,99532.91
2022-08-25T16:17:40.965Z,99537.84
2022-08-25T16:20:12.591Z,99540.28
2022-08-25T16:22:40.359Z,99540.22
2022-08-25T16:25:07.509Z,99539.63
2022-08-25T16:27:38.644Z,99538.47
2022-08-25T16:30:09.126Z,99541.91
2022-08-25T16:32:37.055Z,99534.69
2022-08-25T16:35:05.732Z,99537.78
2022-08-25T16:37:37.774Z,99531.25
2022-08-25T16:40:05.274Z,99529.22
2022-08-25T16:42:31.959Z,99538.44
2022-08-25T16:44:59.911Z,99536.25
2022-08-25T16:47:26.959Z,99529.53
2022-08-25T16:49:54.132Z,99532.72
2022-08-25T16:52:40.651Z,99532.25
2022-08-25T16:55:12.815Z,99527.44
2022-08-25T16:57:41.405Z,99528.53
2022-08-25T17:00:13.539Z,99529.63
2022-08-25T17:02:41.605Z,99530.00
2022-08-25T17:05:10.243Z,99534.66
2022-08-25T17:07:37.422Z,99534.03
2022-08-25T17:10:05.661Z,99533.50
2022-08-25T17:12:32.786Z,99537.31
2022-08-25T17:14:59.490Z,99543.06
2022-08-25T17:17:27.073Z,99535.59
2022-08-25T17:19:54.876Z,99537.78
2022-08-25T17:22:22.574Z,99544.22
2022-08-25T17:24:53.419Z,99540.31
2022-08-25T17:27:27.284Z,99548.81
2022-08-25T17:29:54.611Z,99544.69
2022-08-25T17:32:28.872Z,99551.09
2022-08-25T17:34:57.812Z,99554.88
2022-08-25T17:37:24.632Z,99550.81
2022-08-25T17:39:56.711Z,99550.31
2022-08-25T17:42:31.630Z,99559.41
2022-08-25T17:44:58.249Z,99557.34
2022-08-25T17:47:26.991Z,99551.56
2022-08-25T17:49:54.343Z,99555.34
2022-08-25T17:52:25.423Z,99556.34
2022-08-25T17:54:52.941Z,99559.03
2022-08-25T17:57:19.809Z,99560.75
2022-08-25T17:59:48.095Z,99555.25
2022-08-25T18:02:14.930Z,99558.44
2022-08-25T18:04:42.491Z,99559.75
2022-08-25T18:07:12.016Z,99555.81
2022-08-25T18:09:38.669Z,99549.31
2022-08-25T18:12:05.652Z,99555.03
2022-08-25T18:14:32.304Z,99554.59
2022-08-25T18:17:00.234Z,99551.56
2022-08-25T18:19:26.946Z,99548.47
2022-08-25T18:21:53.614Z,99554.09
2022-08-25T18:24:21.097Z,99549.13
2022-08-25T18:26:50.515Z,99560.66
2022-08-25T18:29:17.372Z,99553.69
2022-08-25T18:31:46.584Z,99548.41
2022-08-25T18:34:15.994Z,99543.16
2022-08-25T18:36:42.730Z,99551.97
2022-08-25T18:39:34.576Z,99550.28
2022-08-25T18:42:03.078Z,99550.44
2022-08-25T18:44:31.601Z,99545.31
2022-08-25T18:46:58.797Z,99544.41
2022-08-25T18:49:26.755Z,99543.63
2022-08-25T18:51:55.573Z,99537.66
2022-08-25T18:54:23.071Z,99540.97
2022-08-25T18:56:52.477Z,99544.59
2022-08-25T18:59:19.989Z,99538.56
2022-08-25T19:01:50.983Z,99534.25
2022-08-25T19:04:17.783Z,99539.56
2022-08-25T19:06:44.825Z,99538.81
2022-08-25T19:09:11.968Z,99528.44
2022-08-25T19:11:38.804Z,99539.94
2022-08-25T19:14:08.086Z,99534.84
2022-08-25T19:16:42.548Z,99530.56
2022-08-25T19:19:13.318Z,99527.16
2022-08-25T19:21:41.416Z,99527.28
2022-08-25T19:24:10.385Z,99530.19
2022-08-25T19:26:38.916Z,99523.44
2022-08-25T19:29:09.417Z,99520.28
2022-08-25T19:31:37.622Z,99525.72
2022-08-25T19:34:07.368Z,99526.84
2022-08-25T19:36:34.288Z,99524.41
2022-08-25T19:39:02.152Z,99522.00
2022-08-25T19:41:31.373Z,99525.69
2022-08-25T19:43:59.473Z,99520.56
2022-08-25T19:46:35.662Z,99518.16
2022-08-25T19:49:19.078Z,99514.91
2022-08-25T19:51:50.530Z,99511.56
2022-08-25T19:54:26.421Z,99510.88
2022-08-25T19:56:54.481Z,99507.59
2022-08-25T19:59:40.689Z,99502.59
2022-08-25T20:02:15.487Z,99502.88
2022-08-25T20:04:49.719Z,99497.91
2022-08-25T20:07:19.053Z,99501.56
2022-08-25T20:09:45.935Z,99486.84
2022-08-25T20:12:12.990Z,99500.94
2022-08-25T20:14:40.045Z,99494.09
2022-08-25T20:17:14.617Z,99496.81
2022-08-25T20:19:56.124Z,99500.41
2022-08-25T20:22:26.145Z,99496.22
2022-08-25T20:24:58.112Z,99496.41
2022-08-25T20:27:36.272Z,99499.94
2022-08-25T20:30:06.044Z,99501.78
2022-08-25T20:32:33.604Z,99499.38
2022-08-25T20:35:02.451Z,99502.03
2022-08-25T20:37:30.531Z,99495.09
2022-08-25T20:39:57.650Z,99488.28
2022-08-25T20:42:25.023Z,99495.41
2022-08-25T20:44:51.821Z,99494.69
2022-08-25T20:47:21.026Z,99489.53
2022-08-25T20:49:48.494Z,99497.66
2022-08-25T20:52:16.014Z,99491.69
2022-08-25T20:54:46.983Z,99483.16
2022-08-25T20:57:17.751Z,99488.53
2022-08-25T20:59:44.375Z,99486.16
2022-08-25T21:02:11.073Z,99476.72
2022-08-25T21:04:39.970Z,99486.34
2022-08-25T21:07:17.625Z,99488.25
2022-08-25T21:09:44.606Z,99485.88
2022-08-25T21:12:11.219Z,99484.25
2022-08-25T21:14:40.739Z,99484.34
2022-08-25T21:17:10.519Z,99484.47
2022-08-25T21:19:38.906Z,99488.06
2022-08-25T21:22:07.525Z,99479.53
2022-08-25T21:24:34.565Z,99475.28
2022-08-25T21:27:03.249Z,99481.47
2022-08-25T21:29:32.565Z,99481.66
2022-08-25T21:32:00.207Z,99473.06
2022-08-25T21:34:29.107Z,99480.13
2022-08-25T21:36:57.857Z,99481.94
2022-08-25T21:39:27.472Z,99478.50
2022-08-25T21:41:58.550Z,99476.88
2022-08-25T21:44:26.914Z,99477.91
2022-08-25T21:46:54.584Z,99476.25
2022-08-25T21:49:22.553Z,99475.47
2022-08-25T21:51:59.326Z,99477.28
2022-08-25T21:54:28.781Z,99480.81
2022-08-25T21:56:59.697Z,99486.09
2022-08-25T21:59:31.908Z,99487.97
2022-08-25T22:02:00.713Z,99482.88
2022-08-25T22:04:28.458Z,99477.78
2022-08-25T22:06:55.741Z,99481.28
2022-08-25T22:09:25.166Z,99484.94
2022-08-25T22:11:54.642Z,99476.28
2022-08-25T22:14:22.033Z,99482.47
2022-08-25T22:16:48.664Z,99474.78
2022-08-25T22:19:15.343Z,99473.19
2022-08-25T22:21:43.965Z,99473.31
2022-08-25T22:24:11.747Z,99470.75
2022-08-25T22:26:39.102Z,99471.72
2022-08-25T22:29:06.600Z,99468.41
2022-08-25T22:31:35.003Z,99462.50
2022-08-25T22:34:03.630Z,99471.25
2022-08-25T22:36:34.441Z,99465.22
2022-08-25T22:39:02.225Z,99466.19
2022-08-25T22:41:30.154Z,99461.94
2022-08-25T22:43:57.711Z,99462.03
2022-08-25T22:46:26.231Z,99463.81
2022-08-25T22:48:55.586Z,99459.66
2022-08-25T22:51:27.709Z,99463.97
2022-08-25T22:53:54.796Z,99463.22
2022-08-25T22:56:29.823Z,99452.88
2022-08-25T22:59:03.147Z,99454.75
2022-08-25T23:01:31.872Z,99453.09
2022-08-25T23:04:01.770Z,99452.28
2022-08-25T23:06:28.789Z,99446.28
2022-08-25T23:08:56.261Z,99449.84
2022-08-25T23:11:24.572Z,99453.41
2022-08-25T23:13:55.356Z,99450.78
2022-08-25T23:16:22.537Z,99452.63
2022-08-25T23:18:49.311Z,99450.94
2022-08-25T23:21:38.024Z,99445.97
2022-08-25T23:24:10.708Z,99452.97
2022-08-25T23:26:42.570Z,99454.75
2022-08-25T23:29:18.639Z,99450.44
2022-08-25T23:31:47.688Z,99444.47
2022-08-25T23:34:16.578Z,99450.59
2022-08-25T23:36:43.813Z,99440.34
2022-08-25T23:39:10.922Z,99445.63
2022-08-25T23:41:37.592Z,99438.69
2022-08-25T23:44:05.483Z,99448.34
2022-08-25T23:46:35.002Z,99435.44
2022-08-25T23:49:03.145Z,99442.44
2022-08-25T23:51:34.322Z,99440.69
2022-08-25T23:54:09.146Z,99444.22
2022-08-25T23:56:37.251Z,99437.34
2022-08-25T23:59:09.739Z,99438.31
